Latest Weather Observations for Tibooburra Airport

IDN60801

Issued at 10:32 pm EDT Friday 12 February 2016 (issued every 30 minutes, with the page automatically refreshed every 10 minutes)

About weather observations | Map of weather stations | Latest weather observations for NSW | Other Formats
Station Details ID: 046126 Name: TIBOOBURRA AIRPORT Lat: -29.44 Lon: 142.06 Height: 176.4 m
Data from the previous 72 hours. | See also: Recent months at Tibooburra Airport
Date/Time
EDT
Temp
°C
App
Temp
°C
Dew
Point
Rel
Hum
%
Delta-T
°C
Wind Press
QNH
hPa
Press
MSL
hPa
Rain
since 9 am
mm
Dir
 
Spd
km/h
Gust
km/h
Spd
kts
Gust
kts
12/10:30pm 32.4 29.0 4.2 17 14.8 ENE 11 13 6 7 1009.9 1008.7 0.0
12/10:00pm 32.5 29.0 3.5 16 15.1 E 11 11 6 6 1009.8 1008.6 0.0
12/09:30pm 33.4 29.5 3.3 15 15.6 ENE 13 15 7 8 1009.6 1008.4 0.0
12/09:00pm 34.4 30.1 3.1 14 16.3 E 15 17 8 9 1009.4 1008.2 0.0
12/08:30pm 35.4 31.8 2.8 13 17.0 ESE 11 13 6 7 1009.0 1007.8 0.0
12/08:00pm 37.4 33.3 2.0 11 18.5 E 13 17 7 9 1008.8 1007.6 0.0
12/07:30pm 38.3 36.5 1.3 10 19.2 CALM 0 6 0 3 1008.6 1007.4 0.0
12/07:00pm 38.5 35.6 1.5 10 19.3 ESE 6 11 3 6 1008.5 1007.3 0.0
12/06:30pm 38.6 35.5 1.6 10 19.3 SSE 7 13 4 7 1008.6 1007.4 0.0
12/06:00pm 38.5 34.7 1.5 10 19.3 SSW 11 19 6 10 1008.7 1007.5 0.0
12/05:30pm 38.4 35.9 1.4 10 19.2 NW 4 7 2 4 1008.8 1007.6 0.0
12/05:00pm 39.5 36.7 2.2 10 19.8 SE 6 13 3 7 1008.9 1007.7 0.0
12/04:30pm 39.7 35.2 2.4 10 19.8 ESE 15 24 8 13 1009.0 1007.8 0.0
12/04:00pm 39.5 34.6 2.2 10 19.8 ENE 17 26 9 14 1009.3 1008.1 0.0
12/03:30pm 38.7 34.5 1.6 10 19.4 ENE 13 22 7 12 1009.7 1008.5 0.0
12/03:00pm 38.9 34.7 1.8 10 19.5 NE 13 26 7 14 1010.1 1009.0 0.0
12/02:30pm 39.2 36.1 3.4 11 19.2 ENE 9 35 5 19 1010.7 1009.5 0.0
12/02:00pm 38.4 35.4 4.0 12 18.6 ENE 9 22 5 12 1011.0 1009.8 0.0
12/01:30pm 37.9 35.4 4.7 13 18.1 N 7 17 4 9 1011.3 1010.1 0.0
12/01:00pm 37.2 33.7 5.3 14 17.5 N 13 22 7 12 1011.8 1010.6 0.0
12/12:30pm 36.6 33.4 6.7 16 16.7 NE 13 20 7 11 1012.1 1010.9 0.0
12/12:00pm 35.9 32.4 7.0 17 16.1 NNE 15 24 8 13 1012.4 1011.2 0.0
12/11:30am 35.1 31.2 7.2 18 15.6 N 17 24 9 13 1012.6 1011.4 0.0
12/11:00am 34.0 29.9 7.9 20 14.7 NNE 19 24 10 13 1012.9 1011.7 0.0
12/10:30am 32.8 28.2 8.3 22 13.8 NNE 22 30 12 16 1013.0 1011.8 0.0
12/10:00am 32.1 28.0 7.7 22 13.5 NE 19 26 10 14 1013.1 1011.9 0.0
12/09:30am 30.6 27.5 8.9 26 12.2 E 15 19 8 10 1013.1 1011.9 0.0
12/09:00am 28.5 25.9 9.2 30 10.8 E 13 17 7 9 1012.8 1011.6 0.0
12/08:30am 27.1 25.2 9.0 32 10.0 E 9 13 5 7 1012.4 1011.2 0.0
12/08:00am 26.1 23.3 8.6 33 9.6 E 13 17 7 9 1012.1 1010.9 0.0
12/07:30am 25.3 23.2 8.3 34 9.2 NE 9 9 5 5 1011.8 1010.6 0.0
12/07:00am 24.4 23.4 8.8 37 8.5 ESE 4 9 2 5 1011.3 1010.1 0.0
12/06:30am 24.4 23.7 8.4 36 8.6 SE 2 9 1 5 1011.0 1009.8 0.0
12/06:00am 24.2 21.0 8.6 37 8.4 E 15 19 8 10 1010.9 1009.7 0.0
12/05:30am 25.0 21.8 8.5 35 8.9 ENE 15 24 8 13 1010.9 1009.7 0.0
12/05:00am 26.9 25.5 8.8 32 10.0 N 6 9 3 5 1009.8 1008.6 0.0
12/04:30am 27.7 25.3 8.6 30 10.5 N 11 13 6 7 1009.7 1008.5 0.0
12/04:00am 27.8 24.9 8.1 29 10.8 N 13 13 7 7 1009.5 1008.3 0.0
12/03:30am 28.0 25.5 8.3 29 10.8 N 11 13 6 7 1009.6 1008.4 0.0
12/03:00am 27.9 25.0 8.2 29 10.8 N 13 13 7 7 1009.8 1008.6 0.0
12/02:30am 27.7 26.2 9.0 31 10.4 NNE 7 11 4 6 1009.9 1008.7 0.0
12/02:00am 27.2 25.6 8.6 31 10.2 ENE 7 7 4 4 1010.2 1009.1 0.0
12/01:30am 27.7 25.8 9.0 31 10.4 NE 9 11 5 6 1010.4 1009.2 0.0
12/01:00am 27.8 25.8 8.6 30 10.6 ENE 9 11 5 6 1010.6 1009.4 0.0
12/12:30am 28.3 26.0 9.1 30 10.7 NE 11 13 6 7 1010.9 1009.7 0.0
12/12:00am 28.4 26.3 8.1 28 11.1 NE 9 9 5 5 1011.1 1009.9 0.0
 
Date/Time
EDT
Temp
°C
App
Temp
°C
Dew
Point
Rel
Hum
%
Delta-T
°C
Wind Press
QNH
hPa
Press
MSL
hPa
Rain
since 9 am
mm
Dir
 
Spd
km/h
Gust
km/h
Spd
kts
Gust
kts
11/11:30pm 30.1 27.7 8.5 26 12.0 NNE 11 13 6 7 1011.0 1009.8 0.0
11/11:00pm 30.8 27.6 8.5 25 12.5 NNE 15 19 8 10 1011.0 1009.8 0.0
11/10:30pm 31.6 28.3 8.0 23 13.1 NE 15 19 8 10 1010.8 1009.6 0.0
11/10:00pm 32.6 28.0 8.1 22 13.7 NE 22 30 12 16 1010.5 1009.3 0.0
11/09:30pm 33.1 28.1 7.9 21 14.1 NE 24 30 13 16 1010.1 1009.0 0.0
11/09:00pm 33.9 27.0 6.3 18 15.1 ENE 32 43 17 23 1009.6 1008.4 0.0
11/08:30pm 34.8 29.6 5.3 16 16.0 ENE 22 28 12 15 1009.1 1007.9 0.0
11/08:00pm 35.3 29.0 5.7 16 16.2 ENE 28 33 15 18 1008.7 1007.5 0.0
11/07:30pm 36.2 30.6 5.5 15 16.8 ENE 24 35 13 19 1008.5 1007.3 0.0
11/07:00pm 35.4 28.7 7.5 18 15.7 E 32 39 17 21 1008.2 1007.0 0.0
11/06:30pm 34.3 29.7 9.5 22 14.3 ESE 24 30 13 16 1008.5 1007.3 0.0
11/06:00pm 33.5 27.3 11.4 26 13.1 E 35 44 19 24 1007.9 1006.7 0.0
11/05:37pm 33.2 26.3 11.7 27 12.8 ESE 39 61 21 33 1007.7 1006.5 0.0
11/05:30pm 33.6 28.1 12.6 28 12.6 ESE 33 46 18 25 1007.8 1006.6 0.0
11/05:26pm 34.0 30.2 12.4 27 13.0 ESE 24 46 13 25 1007.7 1006.5 0.0
11/05:00pm 39.7 35.0 0.9 9 20.2 S 15 37 8 20 1007.7 1006.5 0.0
11/04:30pm 40.0 34.6 1.1 9 20.3 WSW 19 33 10 18 1007.9 1006.7 0.0
11/04:00pm 38.6 33.1 1.6 10 19.3 W 20 33 11 18 1008.2 1007.0 0.0
11/03:30pm 39.7 36.5 0.9 9 20.1 N 7 20 4 11 1008.5 1007.3 0.0
11/03:00pm 40.0 35.7 1.1 9 20.3 NW 13 32 7 17 1009.1 1007.9 0.0
11/02:30pm 39.5 35.4 2.2 10 19.7 WSW 13 26 7 14 1009.7 1008.5 0.0
11/02:00pm 38.8 34.2 1.7 10 19.4 NW 15 30 8 16 1010.1 1009.0 0.0
11/01:30pm 38.3 33.3 1.3 10 19.2 NW 17 28 9 15 1010.7 1009.5 0.0
11/01:00pm 38.2 33.9 1.3 10 19.1 W 13 20 7 11 1011.0 1009.8 0.0
11/12:30pm 37.4 33.5 3.2 12 18.2 NW 13 26 7 14 1011.2 1010.0 0.0
11/12:00pm 37.3 32.8 4.3 13 17.8 NW 17 22 9 12 1011.5 1010.3 0.0
11/11:30am 36.4 31.4 4.6 14 17.2 NNW 20 28 11 15 1011.8 1010.6 0.0
11/11:00am 35.7 30.0 3.0 13 17.2 NNW 22 30 12 16 1011.8 1010.6 0.0
11/10:30am 34.9 29.7 3.5 14 16.5 NNW 20 30 11 16 1011.9 1010.7 0.0
11/10:00am 33.4 28.5 5.0 17 15.2 NNW 20 28 11 15 1011.9 1010.7 0.0
11/09:30am 31.0 26.7 5.4 20 13.6 N 17 20 9 11 1011.9 1010.7 0.0
11/09:00am 30.3 26.8 5.6 21 13.1 N 13 17 7 9 1011.9 1010.7 0.0
11/08:30am 28.8 25.7 5.6 23 12.2 N 11 13 6 7 1011.7 1010.5 0.0
11/08:00am 26.6 23.8 5.0 25 11.1 NNE 9 11 5 6 1011.5 1010.3 0.0
11/07:30am 26.0 23.5 4.5 25 10.9 NE 7 9 4 5 1011.2 1010.0 0.0
11/07:00am 26.2 23.6 4.1 24 11.2 NE 7 9 4 5 1010.8 1009.6 0.0
11/06:30am 27.5 24.2 4.5 23 11.8 NNE 11 13 6 7 1010.1 1009.0 0.0
11/06:00am 26.7 25.2 5.1 25 11.1 N 2 7 1 4 1009.9 1008.7 0.0
11/05:30am 26.1 25.0 5.1 26 10.8 CALM 0 0 0 0 1009.6 1008.4 0.0
11/05:00am 28.5 26.0 4.7 22 12.3 N 7 7 4 4 1009.3 1008.1 0.0
11/04:30am 28.7 25.7 4.2 21 12.6 N 9 11 5 6 1009.1 1007.9 0.0
11/04:00am 29.3 25.9 4.0 20 13.0 N 11 11 6 6 1009.0 1007.8 0.0
11/03:30am 30.1 26.7 4.0 19 13.5 N 11 11 6 6 1009.0 1007.8 0.0
11/03:00am 30.4 27.4 4.2 19 13.6 N 9 11 5 6 1009.3 1008.1 0.0
11/02:30am 30.0 27.1 4.6 20 13.2 N 9 11 5 6 1009.5 1008.3 0.0
11/02:00am 30.2 26.8 4.0 19 13.5 N 11 13 6 7 1009.8 1008.6 0.0
11/01:30am 30.5 27.2 4.3 19 13.6 N 11 13 6 7 1010.1 1009.0 0.0
11/01:00am 30.8 27.5 4.5 19 13.8 NNE 11 11 6 6 1010.4 1009.2 0.0
11/12:30am 30.7 27.4 4.4 19 13.7 N 11 13 6 7 1010.5 1009.3 0.0
11/12:00am 30.5 27.2 4.3 19 13.6 NNE 11 13 6 7 1010.8 1009.6 0.0
 
Date/Time
EDT
Temp
°C
App
Temp
°C
Dew
Point
Rel
Hum
%
Delta-T
°C
Wind Press
QNH
hPa
Press
MSL
hPa
Rain
since 9 am
mm
Dir
 
Spd
km/h
Gust
km/h
Spd
kts
Gust
kts
10/11:30pm 32.0 29.3 3.9 17 14.6 NE 7 7 4 4 1010.8 1009.6 0.0
10/11:00pm 32.3 31.0 4.2 17 14.7 CALM 0 0 0 0 1010.9 1009.7 0.0
10/10:30pm 32.4 30.0 4.2 17 14.8 ENE 6 7 3 4 1010.9 1009.7 0.0
10/10:00pm 32.6 31.4 4.4 17 14.9 CALM 0 0 0 0 1010.9 1009.7 0.0
10/09:30pm 32.9 31.2 3.8 16 15.2 E 2 6 1 3 1010.8 1009.6 0.0
10/09:00pm 33.2 30.2 4.0 16 15.4 E 9 11 5 6 1010.7 1009.5 0.0
10/08:30pm 34.2 31.2 3.9 15 16.0 ESE 9 11 5 6 1010.5 1009.3 0.0
10/08:00pm 35.7 31.7 3.0 13 17.2 SE 13 17 7 9 1010.4 1009.2 0.0
10/07:30pm 36.5 33.2 2.5 12 17.8 SSE 9 15 5 8 1010.1 1009.0 0.0
10/07:00pm 37.0 32.8 1.7 11 18.3 SE 13 20 7 11 1009.9 1008.7 0.0
10/06:30pm 37.1 32.2 1.8 11 18.3 SE 17 28 9 15 1009.9 1008.7 0.0
10/06:00pm 36.8 33.9 2.8 12 17.9 SSE 7 15 4 8 1009.8 1008.6 0.0
10/05:30pm 37.4 32.1 2.0 11 18.4 SE 19 28 10 15 1009.8 1008.6 0.0
10/05:00pm 37.6 33.1 2.1 11 18.6 S 15 24 8 13 1009.9 1008.7 0.0
10/04:30pm 38.2 34.5 2.6 11 18.8 ENE 11 26 6 14 1010.0 1008.9 0.0
10/04:00pm 38.0 32.6 2.5 11 18.7 SE 20 35 11 19 1010.5 1009.3 0.0
10/03:30pm 37.8 31.8 3.5 12 18.3 E 24 33 13 18 1010.8 1009.6 0.0
10/03:00pm 38.1 31.8 3.8 12 18.5 E 26 43 14 23 1011.1 1009.9 0.0
10/02:55pm 38.2 31.5 3.8 12 18.5 E 28 43 15 23 1011.2 1010.0 0.0
10/02:30pm 36.6 31.6 3.7 13 17.5 SE 19 30 10 16 1011.7 1010.5 0.0
10/02:00pm 36.3 33.0 4.6 14 17.1 ESE 11 32 6 17 1012.1 1010.9 0.0
10/01:30pm 36.3 33.0 4.6 14 17.1 E 11 20 6 11 1012.5 1011.3 0.0
10/01:00pm 35.6 33.3 5.9 16 16.3 NNE 7 17 4 9 1012.8 1011.6 0.0
10/12:30pm 35.7 32.7 6.0 16 16.3 NE 11 19 6 10 1013.3 1012.1 0.0
10/12:00pm 34.8 32.0 7.0 18 15.4 ENE 11 20 6 11 1013.7 1012.5 0.0
10/11:30am 34.5 31.8 7.5 19 15.1 NE 11 19 6 10 1013.9 1012.7 0.0
10/11:00am 33.7 30.3 7.6 20 14.6 NNE 15 22 8 12 1014.0 1012.8 0.0
10/10:30am 33.2 29.1 8.6 22 13.9 N 20 28 11 15 1013.9 1012.7 0.0
10/10:00am 31.9 27.7 7.5 22 13.5 N 19 26 10 14 1013.8 1012.6 0.0
10/09:30am 30.4 25.5 7.0 23 12.7 N 22 28 12 15 1013.7 1012.5 0.0
10/09:00am 28.6 24.2 6.7 25 11.7 N 19 28 10 15 1013.6 1012.4 0.0
10/08:30am 27.5 23.9 6.8 27 11.0 N 15 20 8 11 1013.5 1012.3 0.0
10/08:00am 26.6 23.7 6.6 28 10.6 N 11 17 6 9 1013.2 1012.0 0.0
10/07:30am 25.4 22.1 6.6 30 9.9 N 13 17 7 9 1012.8 1011.6 0.0
10/07:00am 24.3 21.8 6.6 32 9.2 NNE 9 11 5 6 1012.5 1011.3 0.0
10/06:30am 24.7 22.1 6.0 30 9.7 NE 9 13 5 7 1012.3 1011.1 0.0
10/06:00am 26.6 22.6 6.6 28 10.6 NNE 17 24 9 13 1011.9 1010.7 0.0
10/05:30am 26.1 22.9 6.7 29 10.2 NNE 13 17 7 9 1011.8 1010.6 0.0
10/05:00am 25.3 22.7 7.9 33 9.3 ENE 11 13 6 7 1012.0 1010.8 0.0
10/04:30am 25.0 21.6 7.6 33 9.3 E 15 17 8 9 1011.9 1010.7 0.0
10/04:00am 25.5 22.9 7.6 32 9.6 E 11 13 6 7 1011.8 1010.6 0.0
10/03:30am 25.7 22.5 6.8 30 10.0 E 13 15 7 8 1011.7 1010.5 0.0
10/03:00am 26.4 24.4 6.9 29 10.4 E 7 9 4 5 1011.8 1010.6 0.0
10/02:30am 26.4 23.6 6.9 29 10.3 E 11 13 6 7 1012.0 1010.8 0.0
10/02:00am 27.2 23.9 6.6 27 10.9 E 13 13 7 7 1012.2 1011.0 0.0
10/01:30am 27.4 24.4 6.2 26 11.2 ENE 11 13 6 7 1012.5 1011.3 0.0
10/01:00am 27.4 23.9 5.6 25 11.4 E 13 15 7 8 1012.6 1011.4 0.0
10/12:30am 27.3 23.7 5.0 24 11.5 E 13 13 7 7 1013.0 1011.8 0.0
10/12:00am 28.2 24.5 4.5 22 12.2 E 13 15 7 8 1013.0 1011.8 0.0
 
Date/Time
EDT
Temp
°C
App
Temp
°C
Dew
Point
Rel
Hum
%
Delta-T
°C
Wind Press
QNH
hPa
Press
MSL
hPa
Rain
since 9 am
mm
Dir
 
Spd
km/h
Gust
km/h
Spd
kts
Gust
kts
09/11:30pm 28.8 25.1 4.3 21 12.6 ESE 13 15 7 8 1013.1 1011.9 0.0
09/11:00pm 29.2 25.4 4.0 20 12.9 ESE 13 15 7 8 1013.1 1011.9 0.0

Other Formats:

Comma delimited format used in spreadsheet applications
http://www.bom.gov.au/fwo/IDN60801/IDN60801.95485.axf

JavaScript Object Notation format (JSON) in row-major order
http://www.bom.gov.au/fwo/IDN60801/IDN60801.95485.json